Time;durP1;ratioP1;P1;durP2;ratioP2;P2;SDS_P1;SDS_P2;PMS_P1;PMS_P2;Temp;Humidity;BMP_temperature;BMP_pressure;BME280_temperature;BME280_humidity;BME280_pressure;Samples;Min_cycle;Max_cycle;Signal;HPM_P1;HPM_P2
2023/09/08 00:01:05;;;;;;;11.75;6.82;;;20.10;99.90;;;;;;5087746;28;20043;-74
2023/09/08 00:03:31;;;;;;;16.38;7.00;;;20.10;99.90;;;;;;5081060;28;20040;-74
2023/09/08 00:05:56;;;;;;;10.40;7.00;;;20.10;99.90;;;;;;5087479;28;20041;-74
2023/09/08 00:08:23;;;;;;;9.60;7.07;;;20.00;99.90;;;;;;5083365;28;20052;-73
2023/09/08 00:10:49;;;;;;;11.80;7.67;;;20.00;99.90;;;;;;5086367;28;20048;-74
2023/09/08 00:13:15;;;;;;;9.35;7.38;;;20.00;99.90;;;;;;5087096;28;20356;-74
2023/09/08 00:15:40;;;;;;;12.60;8.20;;;19.90;99.90;;;;;;5091700;28;20115;-74
2023/09/08 00:18:06;;;;;;;13.55;8.23;;;19.90;99.90;;;;;;5080812;28;20032;-75
2023/09/08 00:20:32;;;;;;;9.35;7.10;;;19.90;99.90;;;;;;5074441;28;20124;-73
2023/09/08 00:22:57;;;;;;;9.30;7.63;;;19.80;99.90;;;;;;5080152;28;20048;-73
2023/09/08 00:25:23;;;;;;;15.85;7.82;;;19.80;99.90;;;;;;5084372;28;20040;-74
2023/09/08 00:27:49;;;;;;;11.55;8.25;;;19.80;99.90;;;;;;5093147;28;20090;-74
2023/09/08 00:30:14;;;;;;;9.32;7.35;;;19.80;99.90;;;;;;5077742;28;20371;-74
2023/09/08 00:32:40;;;;;;;13.45;7.90;;;19.70;99.90;;;;;;5082647;28;20040;-75
2023/09/08 00:35:07;;;;;;;11.20;7.28;;;19.70;99.90;;;;;;5093934;28;20040;-74
2023/09/08 00:37:33;;;;;;;14.00;8.30;;;19.70;99.90;;;;;;5084182;28;20068;-75
2023/09/08 00:39:58;;;;;;;13.07;8.15;;;19.60;99.90;;;;;;5097941;28;20475;-74
2023/09/08 00:42:24;;;;;;;11.45;8.23;;;19.60;99.90;;;;;;5084181;28;20040;-74
2023/09/08 00:44:50;;;;;;;10.60;7.45;;;19.50;99.90;;;;;;5076514;28;20041;-75
2023/09/08 00:47:15;;;;;;;11.85;8.68;;;19.50;99.90;;;;;;5087864;28;20044;-75
2023/09/08 00:49:41;;;;;;;13.07;8.88;;;19.50;99.90;;;;;;5081723;28;20040;-75
2023/09/08 00:52:07;;;;;;;11.88;9.23;;;19.40;99.90;;;;;;5080480;28;20076;-74
2023/09/08 00:54:33;;;;;;;14.45;8.43;;;19.40;99.90;;;;;;5078091;28;20036;-74
2023/09/08 00:57:03;;;;;;;22.40;8.80;;;19.40;99.90;;;;;;5087687;28;20881;-75
2023/09/08 00:59:31;;;;;;;10.60;7.90;;;19.30;99.90;;;;;;5080278;28;20478;-74
2023/09/08 01:01:57;;;;;;;13.52;7.40;;;19.30;99.90;;;;;;5082197;28;21550;-75
2023/09/08 01:04:23;;;;;;;14.02;7.65;;;19.30;99.90;;;;;;5079839;28;20233;-74
2023/09/08 01:06:49;;;;;;;9.48;7.78;;;19.20;99.90;;;;;;5080307;28;20050;-75
2023/09/08 01:09:15;;;;;;;9.77;7.50;;;19.30;99.90;;;;;;5082382;28;20089;-75
2023/09/08 01:11:41;;;;;;;11.05;7.80;;;19.20;99.90;;;;;;5085988;28;20044;-75
2023/09/08 01:14:08;;;;;;;10.95;7.45;;;19.20;99.90;;;;;;5083964;28;20491;-74
2023/09/08 01:16:33;;;;;;;15.23;9.05;;;19.20;99.90;;;;;;5083219;28;20048;-74
2023/09/08 01:18:59;;;;;;;12.38;8.63;;;19.10;99.90;;;;;;5089069;28;20043;-75
2023/09/08 01:21:46;;;;;;;11.40;8.25;;;19.10;99.90;;;;;;5076871;28;20075;-74
2023/09/08 01:24:56;;;;;;;14.05;7.88;;;19.10;99.90;;;;;;5087857;28;20044;-74
2023/09/08 01:27:25;;;;;;;11.48;7.90;;;19.10;99.90;;;;;;5087037;28;20093;-75
2023/09/08 01:29:53;;;;;;;13.13;8.40;;;19.00;99.90;;;;;;5083376;28;20043;-74
2023/09/08 01:32:19;;;;;;;10.93;8.15;;;19.00;99.90;;;;;;5082354;28;20040;-74
2023/09/08 01:34:45;;;;;;;10.30;7.95;;;19.00;99.90;;;;;;5079639;28;20040;-75
2023/09/08 01:37:11;;;;;;;15.25;8.25;;;19.00;99.90;;;;;;5079439;28;20501;-75
2023/09/08 01:39:36;;;;;;;11.60;8.45;;;18.90;99.90;;;;;;5077610;28;20044;-75
2023/09/08 01:42:02;;;;;;;10.60;7.93;;;18.90;99.90;;;;;;5073573;28;20039;-74
2023/09/08 01:44:28;;;;;;;12.07;8.15;;;18.90;99.90;;;;;;5078654;28;20044;-75
2023/09/08 01:46:56;;;;;;;12.73;8.70;;;18.90;99.90;;;;;;5064795;28;20055;-74
2023/09/08 01:49:23;;;;;;;11.80;8.18;;;18.90;99.90;;;;;;5088914;28;20048;-74
2023/09/08 01:51:48;;;;;;;11.48;8.43;;;18.80;99.90;;;;;;5082296;28;20064;-74
2023/09/08 01:54:14;;;;;;;10.10;7.38;;;18.80;99.90;;;;;;5079599;28;20078;-74
2023/09/08 01:56:40;;;;;;;9.55;7.60;;;18.80;99.90;;;;;;5084962;28;20046;-74
2023/09/08 01:59:05;;;;;;;11.35;7.55;;;18.80;99.90;;;;;;5078908;28;20062;-74
2023/09/08 02:01:31;;;;;;;13.18;8.73;;;18.70;99.90;;;;;;5079820;28;20047;-75
2023/09/08 02:03:57;;;;;;;11.65;7.35;;;18.60;99.90;;;;;;5074050;28;20038;-75
2023/09/08 02:06:22;;;;;;;15.20;8.02;;;18.70;99.90;;;;;;5076254;28;20052;-75
2023/09/08 02:08:48;;;;;;;10.20;8.02;;;18.60;99.90;;;;;;5083079;28;20112;-75
2023/09/08 02:11:13;;;;;;;9.63;8.43;;;18.60;99.90;;;;;;5083221;28;20036;-75
2023/09/08 02:13:42;;;;;;;10.50;7.63;;;18.60;99.90;;;;;;5090156;28;20040;-75
2023/09/08 02:16:12;;;;;;;12.60;8.77;;;18.60;99.90;;;;;;5080928;28;20341;-75
2023/09/08 02:18:38;;;;;;;9.68;7.50;;;18.50;99.90;;;;;;5089149;28;20032;-73
2023/09/08 02:21:04;;;;;;;14.38;8.02;;;18.50;99.90;;;;;;5085532;28;20068;-75
2023/09/08 02:23:30;;;;;;;11.95;7.43;;;18.40;99.90;;;;;;5042948;28;1100115;-75
2023/09/08 02:25:55;;;;;;;9.77;8.38;;;18.40;99.90;;;;;;5087396;28;20472;-74
2023/09/08 02:28:21;;;;;;;10.35;7.80;;;18.40;99.90;;;;;;5084822;28;20032;-74
2023/09/08 02:30:47;;;;;;;9.75;7.95;;;18.40;99.90;;;;;;5081570;28;20477;-75
2023/09/08 02:33:12;;;;;;;15.75;7.78;;;18.40;99.90;;;;;;5080957;28;20422;-74
2023/09/08 02:35:39;;;;;;;10.38;8.27;;;18.40;99.90;;;;;;5074449;28;20036;-74
2023/09/08 02:38:05;;;;;;;11.52;8.43;;;18.30;99.90;;;;;;5080524;28;20086;-74
2023/09/08 02:40:34;;;;;;;12.80;8.43;;;18.30;99.90;;;;;;5084039;28;20100;-75
2023/09/08 02:43:03;;;;;;;9.85;8.35;;;18.30;99.90;;;;;;5086237;28;20447;-74
2023/09/08 02:45:29;;;;;;;11.40;8.48;;;18.30;99.90;;;;;;5075725;28;20478;-74
2023/09/08 02:47:55;;;;;;;15.43;8.98;;;18.20;99.90;;;;;;5084273;28;20131;-74
2023/09/08 02:50:21;;;;;;;13.10;9.25;;;18.20;99.90;;;;;;5081798;28;20371;-75
2023/09/08 02:52:46;;;;;;;13.38;8.93;;;18.20;99.90;;;;;;5086783;28;20040;-75
2023/09/08 02:55:12;;;;;;;14.32;8.93;;;18.20;99.90;;;;;;5079309;28;20044;-74
2023/09/08 02:57:39;;;;;;;15.20;9.15;;;18.10;99.90;;;;;;5081156;28;20036;-75
2023/09/08 03:00:07;;;;;;;14.88;9.50;;;18.10;99.90;;;;;;5077790;28;20567;-75
2023/09/08 03:02:33;;;;;;;13.25;9.18;;;18.10;99.90;;;;;;5078601;28;20055;-75
2023/09/08 03:04:58;;;;;;;11.88;8.82;;;18.10;99.90;;;;;;5077092;28;20055;-74
2023/09/08 03:07:24;;;;;;;11.38;9.43;;;18.10;99.90;;;;;;5079993;28;20500;-75
2023/09/08 03:09:50;;;;;;;13.35;9.13;;;18.00;99.90;;;;;;5076371;28;20037;-75
2023/09/08 03:12:15;;;;;;;16.05;9.15;;;18.00;99.90;;;;;;5083299;28;20060;-75
2023/09/08 03:14:41;;;;;;;12.18;8.88;;;18.00;99.90;;;;;;5085011;28;20116;-75
2023/09/08 03:17:06;;;;;;;12.45;9.90;;;17.90;99.90;;;;;;5080700;28;20043;-75
2023/09/08 03:19:32;;;;;;;19.27;10.20;;;17.90;99.90;;;;;;5093670;28;20048;-75
2023/09/08 03:21:58;;;;;;;10.23;9.15;;;17.90;99.90;;;;;;5077132;28;20041;-75
2023/09/08 03:24:24;;;;;;;11.55;9.32;;;17.90;99.90;;;;;;5080628;28;20363;-74
2023/09/08 03:26:49;;;;;;;14.25;10.00;;;17.90;99.90;;;;;;5083321;28;20055;-75
2023/09/08 03:29:15;;;;;;;11.13;9.20;;;17.80;99.90;;;;;;5061439;28;20054;-76
2023/09/08 03:31:41;;;;;;;13.57;9.90;;;17.80;99.90;;;;;;5082891;28;20044;-74
2023/09/08 03:34:07;;;;;;;15.18;9.93;;;17.80;99.90;;;;;;5082390;28;20047;-74
2023/09/08 03:36:35;;;;;;;13.43;9.70;;;17.80;99.90;;;;;;5088172;28;20046;-74
2023/09/08 03:39:01;;;;;;;11.10;9.18;;;17.80;99.90;;;;;;5089608;28;20113;-75
2023/09/08 03:41:27;;;;;;;14.35;9.70;;;17.70;99.90;;;;;;5089497;28;20501;-75
2023/09/08 03:43:53;;;;;;;12.80;9.68;;;17.70;99.90;;;;;;5079812;28;20048;-73
2023/09/08 03:46:21;;;;;;;14.35;9.95;;;17.70;99.90;;;;;;5080697;28;20036;-75
2023/09/08 03:48:47;;;;;;;13.88;9.82;;;17.70;99.90;;;;;;5087322;28;20044;-75
2023/09/08 03:51:13;;;;;;;11.75;9.50;;;17.70;99.90;;;;;;5089607;28;20050;-75
2023/09/08 03:53:38;;;;;;;14.68;9.73;;;17.60;99.90;;;;;;5087875;28;20115;-74
2023/09/08 03:56:04;;;;;;;11.40;9.00;;;17.60;99.90;;;;;;5072618;28;20052;-74
2023/09/08 03:58:30;;;;;;;11.60;9.23;;;17.50;99.90;;;;;;5076182;28;20119;-75
2023/09/08 04:00:55;;;;;;;16.02;10.38;;;17.50;99.90;;;;;;5087101;28;20040;-75
2023/09/08 04:03:21;;;;;;;15.38;9.77;;;17.50;99.90;;;;;;5076499;28;20044;-75
2023/09/08 04:05:47;;;;;;;14.23;10.10;;;17.40;99.90;;;;;;5082844;28;20036;-75
2023/09/08 04:08:12;;;;;;;15.40;10.23;;;17.40;99.90;;;;;;5091091;28;20102;-75
2023/09/08 04:10:38;;;;;;;15.07;9.90;;;17.40;99.90;;;;;;5090383;28;20077;-75
2023/09/08 04:13:04;;;;;;;14.02;9.95;;;17.40;99.90;;;;;;5089831;28;20043;-75
2023/09/08 04:15:30;;;;;;;17.42;10.88;;;17.30;99.90;;;;;;5082998;28;20450;-75
2023/09/08 04:17:57;;;;;;;17.85;10.55;;;17.30;99.90;;;;;;5081771;28;20072;-75
2023/09/08 04:20:22;;;;;;;12.23;10.55;;;17.30;99.90;;;;;;5081538;28;20119;-74
2023/09/08 04:22:48;;;;;;;18.85;10.30;;;17.30;99.90;;;;;;5087194;28;20152;-75
2023/09/08 04:25:14;;;;;;;18.17;10.32;;;17.30;99.90;;;;;;5084488;28;20047;-75
2023/09/08 04:27:40;;;;;;;18.23;10.23;;;17.30;99.90;;;;;;5089531;28;20082;-75
2023/09/08 04:30:06;;;;;;;16.70;11.43;;;17.20;99.90;;;;;;5086094;28;20036;-75
2023/09/08 04:32:32;;;;;;;13.18;10.40;;;17.20;99.90;;;;;;5098040;28;20044;-74
2023/09/08 04:34:58;;;;;;;16.35;11.05;;;17.20;99.90;;;;;;5086209;28;20036;-74
2023/09/08 04:37:24;;;;;;;13.43;9.60;;;17.20;99.90;;;;;;5083619;28;20059;-74
2023/09/08 04:39:49;;;;;;;10.75;9.65;;;17.20;99.90;;;;;;5080997;28;20428;-75
2023/09/08 04:42:15;;;;;;;13.82;10.23;;;17.20;99.90;;;;;;5084229;28;20040;-74
2023/09/08 04:44:41;;;;;;;14.65;10.23;;;17.20;99.90;;;;;;5081280;28;20040;-75
2023/09/08 04:47:06;;;;;;;17.05;10.88;;;17.10;99.90;;;;;;5118420;27;20442;-74
2023/09/08 04:49:32;;;;;;;13.23;10.57;;;17.10;99.90;;;;;;5087270;28;20130;-75
2023/09/08 04:51:58;;;;;;;14.90;10.73;;;17.10;99.90;;;;;;5090028;28;20129;-75
2023/09/08 04:54:26;;;;;;;15.52;10.55;;;17.10;99.90;;;;;;5068213;28;20032;-75
2023/09/08 04:56:53;;;;;;;14.40;10.77;;;17.10;99.90;;;;;;5062858;28;20464;-75
2023/09/08 04:59:18;;;;;;;17.40;11.23;;;17.00;99.90;;;;;;5078489;28;20490;-74
2023/09/08 05:01:44;;;;;;;15.77;11.50;;;17.00;99.90;;;;;;5081419;28;20039;-74
2023/09/08 05:04:10;;;;;;;16.90;11.43;;;17.00;99.90;;;;;;5073528;28;20048;-75
2023/09/08 05:06:36;;;;;;;17.02;10.27;;;16.90;99.90;;;;;;5056129;28;20044;-74
2023/09/08 05:09:01;;;;;;;13.20;11.80;;;16.90;99.90;;;;;;5076305;28;20498;-74
2023/09/08 05:11:27;;;;;;;17.58;12.65;;;16.90;99.90;;;;;;5080434;28;20375;-75
2023/09/08 05:13:53;;;;;;;15.60;11.63;;;16.90;99.90;;;;;;5083945;28;20043;-74
2023/09/08 05:16:25;;;;;;;15.85;11.07;;;16.90;99.90;;;;;;5085668;28;20097;-75
2023/09/08 05:18:51;;;;;;;18.92;11.50;;;16.90;99.90;;;;;;5067375;28;20058;-75
2023/09/08 05:21:17;;;;;;;18.50;11.75;;;16.90;99.90;;;;;;5079416;28;20486;-75
2023/09/08 05:23:42;;;;;;;20.38;11.43;;;16.90;99.90;;;;;;5068415;28;20044;-74
2023/09/08 05:26:08;;;;;;;15.07;11.68;;;16.90;99.90;;;;;;5084929;28;20090;-74
2023/09/08 05:28:34;;;;;;;19.90;12.10;;;16.90;99.90;;;;;;5087320;28;20049;-76
2023/09/08 05:30:59;;;;;;;16.67;11.45;;;16.90;99.90;;;;;;5068821;28;20121;-74
2023/09/08 05:33:25;;;;;;;17.13;11.82;;;16.90;99.90;;;;;;5072648;28;20071;-74
2023/09/08 05:35:51;;;;;;;17.20;11.32;;;16.90;99.90;;;;;;5093029;28;20035;-75
2023/09/08 05:38:16;;;;;;;13.63;11.40;;;16.90;99.90;;;;;;5085219;28;20151;-75
2023/09/08 05:40:43;;;;;;;17.80;12.07;;;16.90;99.90;;;;;;5079201;28;20086;-75
2023/09/08 05:43:08;;;;;;;15.18;11.50;;;17.00;99.90;;;;;;5115964;27;20385;-74
2023/09/08 05:45:34;;;;;;;20.17;12.35;;;17.00;99.90;;;;;;5078113;28;20048;-75
2023/09/08 05:48:01;;;;;;;19.63;11.73;;;17.00;99.90;;;;;;5085394;28;20037;-76
2023/09/08 05:50:27;;;;;;;24.35;11.82;;;17.00;99.90;;;;;;5085989;28;20036;-75
2023/09/08 05:52:52;;;;;;;14.45;12.07;;;17.00;99.90;;;;;;5082276;28;21067;-75
2023/09/08 05:55:18;;;;;;;17.25;11.68;;;17.00;99.90;;;;;;5078016;28;20416;-75
2023/09/08 05:57:44;;;;;;;22.92;12.30;;;17.10;99.90;;;;;;5088212;28;20040;-75
2023/09/08 06:00:10;;;;;;;17.48;11.82;;;17.10;99.90;;;;;;5082279;28;20560;-76
2023/09/08 06:02:35;;;;;;;18.75;12.15;;;17.10;99.90;;;;;;5077497;28;20104;-75
2023/09/08 06:05:01;;;;;;;18.90;11.40;;;17.20;99.90;;;;;;5092984;28;20123;-75
2023/09/08 06:07:27;;;;;;;24.08;11.88;;;17.20;99.90;;;;;;5089580;28;20550;-76
2023/09/08 06:09:52;;;;;;;17.02;12.18;;;17.30;99.90;;;;;;5079608;28;20070;-76
2023/09/08 06:12:18;;;;;;;17.75;12.35;;;17.30;99.90;;;;;;5078838;28;20562;-74
2023/09/08 06:14:44;;;;;;;18.25;12.68;;;17.40;99.90;;;;;;5092288;28;20043;-76
2023/09/08 06:17:10;;;;;;;18.13;11.90;;;17.40;99.90;;;;;;5059588;28;20474;-76
2023/09/08 06:19:36;;;;;;;18.60;12.60;;;17.50;99.90;;;;;;5085921;28;20033;-75
2023/09/08 06:22:01;;;;;;;16.05;11.68;;;17.50;99.90;;;;;;5075224;28;20551;-75
2023/09/08 06:24:27;;;;;;;17.80;11.50;;;17.60;99.90;;;;;;5078377;28;20044;-75
2023/09/08 06:26:53;;;;;;;19.17;11.63;;;17.80;99.90;;;;;;5080375;28;20067;-75
2023/09/08 06:29:19;;;;;;;18.80;12.45;;;17.80;99.90;;;;;;5093392;28;20434;-76
2023/09/08 06:31:44;;;;;;;19.92;11.68;;;18.10;99.90;;;;;;5082644;28;20186;-76
2023/09/08 06:34:10;;;;;;;17.30;11.43;;;18.40;99.90;;;;;;5077056;28;20695;-76
2023/09/08 06:36:36;;;;;;;19.10;11.43;;;18.80;99.90;;;;;;5089188;28;20498;-75
2023/09/08 06:39:02;;;;;;;13.80;11.48;;;19.10;99.90;;;;;;5087220;28;20407;-77
2023/09/08 06:41:28;;;;;;;15.32;10.38;;;19.20;99.90;;;;;;5085811;28;20036;-76
2023/09/08 06:43:54;;;;;;;16.10;11.32;;;19.30;99.90;;;;;;5087166;28;20079;-76
2023/09/08 06:46:19;;;;;;;16.05;10.48;;;19.60;99.90;;;;;;5083922;28;20575;-76
2023/09/08 06:48:45;;;;;;;14.93;10.77;;;19.90;99.90;;;;;;5083686;28;20547;-76
2023/09/08 06:51:11;;;;;;;15.82;10.52;;;20.00;99.90;;;;;;5074312;28;20059;-76
2023/09/08 06:53:37;;;;;;;16.50;11.70;;;20.00;99.90;;;;;;5074419;28;20098;-74
2023/09/08 06:56:02;;;;;;;13.93;9.63;;;20.10;99.90;;;;;;5091445;28;20089;-74
2023/09/08 06:58:28;;;;;;;17.42;9.80;;;20.30;99.90;;;;;;5081499;28;20035;-75
2023/09/08 07:00:54;;;;;;;12.88;9.50;;;20.70;99.90;;;;;;5087634;28;20508;-75
2023/09/08 07:03:24;;;;;;;13.05;9.88;;;21.20;99.90;;;;;;5089853;28;20101;-74
2023/09/08 07:05:50;;;;;;;20.90;9.48;;;21.70;99.90;;;;;;5087151;28;20044;-75
2023/09/08 07:08:17;;;;;;;14.10;9.48;;;22.00;99.90;;;;;;5081934;28;20094;-75
2023/09/08 07:10:43;;;;;;;14.65;9.70;;;22.10;99.90;;;;;;5082073;28;20083;-75
2023/09/08 07:13:09;;;;;;;17.33;9.73;;;22.00;99.90;;;;;;5090304;28;20075;-75
2023/09/08 07:15:35;;;;;;;12.85;9.68;;;21.90;99.90;;;;;;5083242;28;20461;-74
2023/09/08 07:18:00;;;;;;;12.23;9.18;;;21.70;99.90;;;;;;5084507;28;20040;-75
2023/09/08 07:20:26;;;;;;;12.00;9.32;;;21.70;99.90;;;;;;5087155;28;20035;-74
2023/09/08 07:22:52;;;;;;;14.07;9.98;;;21.60;99.90;;;;;;5094683;28;20048;-75
2023/09/08 07:25:17;;;;;;;12.25;9.82;;;21.60;99.90;;;;;;5093762;28;20051;-74
2023/09/08 07:27:43;;;;;;;14.65;9.30;;;21.60;99.90;;;;;;5087199;28;20050;-76
2023/09/08 07:30:09;;;;;;;11.68;9.07;;;21.60;99.90;;;;;;5087030;28;20033;-76
2023/09/08 07:32:35;;;;;;;11.00;9.07;;;21.70;99.90;;;;;;5085927;28;20131;-74
2023/09/08 07:35:00;;;;;;;15.15;9.23;;;21.70;99.90;;;;;;5090769;28;20040;-75
2023/09/08 07:37:26;;;;;;;12.02;9.02;;;21.70;99.90;;;;;;5087611;28;20419;-74
2023/09/08 07:39:52;;;;;;;16.95;9.70;;;21.80;99.90;;;;;;5084303;28;20044;-74
2023/09/08 07:42:18;;;;;;;12.32;8.68;;;21.90;99.90;;;;;;5087018;28;20036;-75
2023/09/08 07:44:45;;;;;;;12.80;8.48;;;22.00;99.90;;;;;;5095353;28;20036;-75
2023/09/08 07:47:10;;;;;;;15.40;9.07;;;22.10;99.90;;;;;;5081697;28;20044;-74
2023/09/08 07:49:36;;;;;;;18.25;8.35;;;22.20;99.90;;;;;;5091393;28;20039;-75
2023/09/08 07:52:04;;;;;;;17.17;8.80;;;22.30;99.90;;;;;;5090865;28;20718;-75
2023/09/08 07:54:30;;;;;;;13.52;8.30;;;22.40;99.90;;;;;;5096764;28;20122;-75
2023/09/08 07:56:56;;;;;;;12.50;8.48;;;22.50;99.90;;;;;;5093916;28;20079;-75
2023/09/08 07:59:21;;;;;;;16.45;8.07;;;22.60;99.90;;;;;;5089622;28;20072;-74
2023/09/08 08:01:47;;;;;;;9.93;8.38;;;22.70;99.90;;;;;;5094826;28;20032;-75
2023/09/08 08:04:13;;;;;;;14.25;7.93;;;22.70;99.90;;;;;;5075136;28;20032;-75
2023/09/08 08:06:38;;;;;;;12.65;8.40;;;22.80;99.90;;;;;;5078877;28;20040;-74
2023/09/08 08:09:04;;;;;;;9.38;7.30;;;22.90;99.90;;;;;;5075472;28;20056;-75
2023/09/08 08:11:30;;;;;;;13.20;7.47;;;23.00;99.90;;;;;;5082295;28;20436;-75
2023/09/08 08:13:59;;;;;;;13.20;8.10;;;23.20;99.90;;;;;;5089055;28;20044;-74
2023/09/08 08:16:25;;;;;;;9.80;7.60;;;23.30;99.90;;;;;;5080217;28;20520;-74
2023/09/08 08:18:50;;;;;;;8.70;6.82;;;23.50;99.90;;;;;;5090843;28;20044;-73
2023/09/08 08:21:16;;;;;;;11.15;6.93;;;23.70;99.90;;;;;;5087210;28;20040;-75
2023/09/08 08:23:42;;;;;;;11.75;6.75;;;23.80;99.90;;;;;;5074425;28;20060;-75
2023/09/08 08:26:07;;;;;;;7.68;6.22;;;24.00;99.90;;;;;;5098482;28;20036;-74
2023/09/08 08:28:33;;;;;;;10.45;6.15;;;24.10;99.90;;;;;;5090537;28;20055;-74
2023/09/08 08:30:59;;;;;;;11.65;6.05;;;24.40;99.90;;;;;;5076464;28;20390;-75
2023/09/08 08:33:25;;;;;;;8.57;5.40;;;24.60;99.90;;;;;;5074614;28;20044;-74
2023/09/08 08:35:52;;;;;;;8.23;5.00;;;24.70;99.90;;;;;;5085779;28;20048;-75
2023/09/08 08:38:18;;;;;;;9.88;5.43;;;24.90;99.90;;;;;;5089814;28;20041;-74
2023/09/08 08:40:44;;;;;;;11.63;5.63;;;25.00;99.90;;;;;;5080860;28;20036;-75
2023/09/08 08:43:10;;;;;;;11.45;5.22;;;25.20;99.90;;;;;;5082764;28;20052;-75
2023/09/08 08:45:38;;;;;;;7.03;4.63;;;25.30;99.90;;;;;;5084086;28;20043;-75
2023/09/08 08:48:05;;;;;;;12.15;4.60;;;25.40;99.90;;;;;;5090750;28;20051;-75
2023/09/08 08:50:32;;;;;;;9.45;4.78;;;25.50;99.90;;;;;;5091516;28;20050;-74
2023/09/08 08:52:58;;;;;;;11.93;4.93;;;25.70;99.90;;;;;;5078057;28;20067;-75
2023/09/08 08:55:25;;;;;;;9.75;4.72;;;25.90;99.90;;;;;;5098536;28;20471;-75
2023/09/08 08:57:52;;;;;;;8.70;4.90;;;26.00;99.90;;;;;;5084564;28;20040;-74
2023/09/08 09:00:18;;;;;;;7.72;4.28;;;26.10;99.90;;;;;;5102415;28;20043;-74
2023/09/08 09:02:45;;;;;;;12.60;4.43;;;26.30;99.90;;;;;;5073956;28;20040;-75
2023/09/08 09:05:14;;;;;;;10.05;4.90;;;26.40;99.90;;;;;;5084521;28;20044;-75
2023/09/08 09:07:41;;;;;;;8.73;4.68;;;26.50;99.90;;;;;;5074871;28;20044;-75
2023/09/08 09:10:08;;;;;;;8.90;4.80;;;26.70;99.90;;;;;;5087783;28;20044;-75
2023/09/08 09:12:35;;;;;;;8.93;4.70;;;26.80;99.90;;;;;;5084900;28;20036;-76
2023/09/08 09:15:04;;;;;;;10.38;4.68;;;26.90;99.90;;;;;;5094768;28;20051;-76
2023/09/08 09:17:34;;;;;;;7.53;4.53;;;27.00;99.90;;;;;;5089498;28;20044;-75
2023/09/08 09:20:20;;;;;;;5.43;4.20;;;27.10;99.00;;;;;;5080087;28;20118;-76
2023/09/08 09:22:47;;;;;;;7.57;4.55;;;27.10;98.30;;;;;;5087280;28;20130;-76
2023/09/08 09:25:29;;;;;;;5.55;4.15;;;27.20;98.30;;;;;;5087673;28;20036;-77
2023/09/08 09:27:57;;;;;;;9.02;4.80;;;27.30;98.20;;;;;;5085401;28;20036;-75
2023/09/08 09:30:23;;;;;;;9.65;4.50;;;27.40;98.40;;;;;;5073329;28;20040;-75
2023/09/08 09:33:04;;;;;;;13.10;4.20;;;27.50;98.30;;;;;;5092533;28;20425;-75
2023/09/08 09:35:44;;;;;;;7.70;4.53;;;27.60;97.60;;;;;;5090186;28;20036;-75
2023/09/08 09:38:10;;;;;;;7.90;4.90;;;27.70;97.40;;;;;;5091013;28;20097;-75
2023/09/08 09:40:37;;;;;;;8.43;4.65;;;27.80;97.40;;;;;;5083725;28;20375;-75
2023/09/08 09:43:07;;;;;;;5.22;3.90;;;28.00;96.80;;;;;;5086890;28;20041;-75
2023/09/08 09:45:34;;;;;;;9.88;4.38;;;28.00;96.80;;;;;;5075833;28;20044;-76
2023/09/08 09:48:01;;;;;;;;;;;28.20;96.70;;;;;;5074557;28;20398;-75
2023/09/08 09:50:34;;;;;;;5.38;4.07;;;28.30;96.50;;;;;;5089273;28;19927;-74
2023/09/08 09:53:01;;;;;;;6.40;4.63;;;28.40;96.70;;;;;;5092267;28;20047;-76
2023/09/08 09:55:27;;;;;;;;;;;28.60;96.40;;;;;;5090359;28;20050;-77
2023/09/08 09:57:58;;;;;;;10.65;4.20;;;28.70;95.20;;;;;;5082552;28;20384;-75
2023/09/08 10:00:27;;;;;;;7.72;3.95;;;28.80;95.80;;;;;;5079685;28;20081;-77
2023/09/08 10:02:56;;;;;;;7.20;4.15;;;28.90;96.10;;;;;;5096562;28;20047;-76
2023/09/08 10:05:24;;;;;;;8.63;4.45;;;29.10;95.40;;;;;;5090190;28;20051;-75
2023/09/08 10:07:50;;;;;;;8.98;4.18;;;29.20;94.50;;;;;;5089453;28;20512;-75
2023/09/08 10:10:17;;;;;;;7.03;4.00;;;29.30;94.40;;;;;;5091139;28;20498;-75
2023/09/08 10:12:52;;;;;;;6.72;4.38;;;29.40;93.90;;;;;;5073558;28;20055;-75
2023/09/08 10:15:21;;;;;;;10.75;4.20;;;29.60;93.80;;;;;;5088685;28;20466;-75
2023/09/08 10:17:52;;;;;;;8.73;4.60;;;29.80;94.10;;;;;;5088532;28;20047;-75
2023/09/08 10:20:21;;;;;;;10.15;4.10;;;30.00;93.90;;;;;;5095748;28;20036;-74
2023/09/08 10:22:54;;;;;;;9.50;4.25;;;30.10;93.60;;;;;;5096610;28;20063;-75
2023/09/08 10:25:24;;;;;;;8.57;3.95;;;30.30;92.70;;;;;;5092876;28;20058;-76
2023/09/08 10:27:50;;;;;;;8.18;4.88;;;30.40;92.50;;;;;;5080753;28;20052;-75
2023/09/08 10:30:20;;;;;;;8.52;3.92;;;30.40;92.00;;;;;;5083580;28;20044;-76
2023/09/08 10:32:49;;;;;;;7.75;4.50;;;30.60;92.00;;;;;;5087984;28;20119;-76
2023/09/08 10:35:17;;;;;;;8.30;4.05;;;30.70;92.10;;;;;;5084986;28;20560;-76
2023/09/08 10:37:43;;;;;;;6.68;4.00;;;30.90;92.00;;;;;;5085021;28;20450;-75
2023/09/08 10:40:22;;;;;;;8.18;4.35;;;31.10;91.70;;;;;;5087819;28;20068;-75
2023/09/08 10:42:49;;;;;;;5.97;3.90;;;31.20;91.20;;;;;;5080969;28;20048;-75
2023/09/08 10:45:16;;;;;;;10.60;4.63;;;31.40;91.00;;;;;;5086836;28;20074;-75
2023/09/08 10:47:48;;;;;;;9.10;4.22;;;31.50;90.40;;;;;;5085156;28;20544;-75
2023/09/08 10:50:18;;;;;;;9.75;4.20;;;31.60;90.10;;;;;;5112775;27;20037;-75
2023/09/08 10:52:44;;;;;;;8.38;4.43;;;31.80;89.90;;;;;;5083339;28;20126;-72
2023/09/08 10:55:14;;;;;;;9.17;3.80;;;32.00;90.20;;;;;;5092883;28;20082;-76
2023/09/08 10:57:45;;;;;;;7.95;3.72;;;32.10;89.60;;;;;;5083703;28;20076;-75
2023/09/08 11:00:17;;;;;;;6.75;3.42;;;32.30;89.10;;;;;;5095684;28;20043;-75
2023/09/08 11:02:49;;;;;;;7.82;3.80;;;32.40;88.10;;;;;;5089587;28;20098;-75
2023/09/08 11:05:15;;;;;;;8.57;4.07;;;32.60;85.70;;;;;;5088463;28;20070;-76
2023/09/08 11:07:45;;;;;;;5.45;3.72;;;32.70;86.80;;;;;;5086218;28;20379;-75
2023/09/08 11:10:12;;;;;;;11.90;4.80;;;32.60;85.20;;;;;;5081445;28;20040;-75
2023/09/08 11:12:37;;;;;;;;;;;32.60;84.90;;;;;;5088493;28;20517;-76
2023/09/08 11:15:08;;;;;;;6.38;4.07;;;32.70;82.80;;;;;;5081175;28;19920;-76
2023/09/08 11:17:35;;;;;;;6.53;3.80;;;32.90;85.30;;;;;;5081861;28;20094;-76
2023/09/08 11:20:08;;;;;;;8.90;4.28;;;33.10;85.20;;;;;;5077031;28;20113;-75
2023/09/08 11:22:35;;;;;;;5.45;3.80;;;33.30;85.00;;;;;;5086423;28;20138;-75
2023/09/08 11:25:04;;;;;;;6.28;3.95;;;33.30;83.60;;;;;;5094239;28;20055;-74
2023/09/08 11:27:31;;;;;;;5.35;3.95;;;33.60;83.80;;;;;;5101205;28;20043;-76
2023/09/08 11:29:57;;;;;;;10.40;4.30;;;33.60;82.20;;;;;;5090427;28;20032;-75
2023/09/08 11:32:24;;;;;;;9.63;4.00;;;33.70;81.80;;;;;;5093696;28;20173;-75
2023/09/08 11:34:50;;;;;;;6.45;3.90;;;33.70;81.90;;;;;;5085746;28;20044;-76
2023/09/08 11:37:18;;;;;;;9.02;3.78;;;33.70;81.70;;;;;;5079270;28;20064;-76
2023/09/08 11:39:47;;;;;;;9.77;4.40;;;33.80;82.10;;;;;;5088117;28;20496;-76
2023/09/08 11:42:15;;;;;;;7.93;3.90;;;33.90;81.90;;;;;;5097674;28;20135;-75
2023/09/08 11:44:41;;;;;;;7.60;3.70;;;34.00;81.10;;;;;;5089551;28;20753;-75
2023/09/08 11:47:09;;;;;;;13.10;3.90;;;34.20;80.20;;;;;;5088292;28;20489;-76
2023/09/08 11:49:40;;;;;;;6.55;3.80;;;34.10;79.80;;;;;;5078798;28;20040;-75
2023/09/08 11:52:08;;;;;;;7.80;4.22;;;34.10;80.00;;;;;;5075360;28;20052;-75
2023/09/08 11:54:35;;;;;;;10.60;4.40;;;34.10;79.70;;;;;;5067178;28;20090;-75
2023/09/08 11:57:04;;;;;;;7.32;4.05;;;34.20;78.80;;;;;;5099947;28;20062;-75
2023/09/08 11:59:32;;;;;;;8.38;3.78;;;34.20;78.00;;;;;;5095376;28;20036;-75
2023/09/08 12:01:58;;;;;;;6.55;3.83;;;34.10;77.60;;;;;;5086113;28;20499;-75
2023/09/08 12:04:24;;;;;;;11.95;3.70;;;34.30;78.80;;;;;;5085571;28;20120;-76
2023/09/08 12:06:52;;;;;;;7.38;3.80;;;34.40;77.80;;;;;;5080102;28;20052;-75
2023/09/08 12:09:20;;;;;;;8.90;4.10;;;34.40;76.70;;;;;;5087521;28;20080;-75
2023/09/08 12:11:46;;;;;;;5.95;3.90;;;34.30;75.70;;;;;;5088818;28;20489;-75
2023/09/08 12:14:13;;;;;;;5.38;3.58;;;34.40;75.20;;;;;;5081742;28;20035;-74
2023/09/08 12:16:40;;;;;;;14.82;4.45;;;34.60;75.90;;;;;;5086023;28;20048;-76
2023/09/08 12:19:07;;;;;;;6.40;3.47;;;34.70;74.50;;;;;;5091023;28;20064;-74
2023/09/08 12:21:54;;;;;;;8.10;4.13;;;34.80;73.00;;;;;;5092638;28;20040;-76
2023/09/08 12:24:20;;;;;;;6.28;3.20;;;34.80;73.50;;;;;;5092845;28;20067;-75
2023/09/08 12:26:45;;;;;;;8.17;4.03;;;34.80;73.00;;;;;;5076485;28;20478;-75
2023/09/08 12:29:14;;;;;;;7.37;3.60;;;35.00;73.60;;;;;;5074378;28;20083;-75
2023/09/08 12:31:40;;;;;;;4.38;3.63;;;35.00;70.70;;;;;;5085137;28;20044;-73
2023/09/08 12:34:08;;;;;;;11.53;3.83;;;34.90;71.20;;;;;;5084690;28;20268;-74
2023/09/08 12:36:36;;;;;;;7.15;3.50;;;35.00;71.50;;;;;;5084802;28;20119;-75